Terminal Aerodrome Forecast
Issued by NWS Greer, SC

Home | Current Version | Previous Version | Text Only | Print | Product List | Glossary On
Versions: 1 2 3 4 5 6 7 8 9 10 11 12 13 14 15 16 17 18 19
803
FTUS42 KGSP 261129
TAFGSP
TAF
KGSP 261129Z 2612/2712 13005KT P6SM VCSH FEW040 BKN050
      TEMPO 2613/2615 3SM -SHRA BKN020
     FM261800 19009KT P6SM VCTS OVC025CB
     FM262100 18009KT P6SM BKN045 PROB30 2621/2701 4SM -TSRA
      OVC025CB
     FM270300 17005KT P6SM BKN015=

USA.gov is the U.S. government's official web portal to all federal, state and local government web resources and services.